sensor_id;sensor_type;location;lat;lon;timestamp;temperature;humidity
37844;DHT22;63793;57.632;18.292;2023-05-17T00:00:57;11.30;99.90
37844;DHT22;63793;57.632;18.292;2023-05-17T00:03:24;11.20;99.90
37844;DHT22;63793;57.632;18.292;2023-05-17T00:05:51;11.20;99.90
37844;DHT22;63793;57.632;18.292;2023-05-17T00:08:18;11.20;99.90
37844;DHT22;63793;57.632;18.292;2023-05-17T00:10:48;11.10;99.90
37844;DHT22;63793;57.632;18.292;2023-05-17T00:13:15;11.10;99.90
37844;DHT22;63793;57.632;18.292;2023-05-17T00:15:42;11.10;99.90
37844;DHT22;63793;57.632;18.292;2023-05-17T00:18:08;11.10;99.90
37844;DHT22;63793;57.632;18.292;2023-05-17T00:20:36;11.10;99.90
37844;DHT22;63793;57.632;18.292;2023-05-17T00:23:03;11.10;99.90
37844;DHT22;63793;57.632;18.292;2023-05-17T00:25:30;11.00;99.90
37844;DHT22;63793;57.632;18.292;2023-05-17T00:27:57;10.90;99.90
37844;DHT22;63793;57.632;18.292;2023-05-17T00:30:24;10.80;99.90
37844;DHT22;63793;57.632;18.292;2023-05-17T00:32:51;10.80;99.90
37844;DHT22;63793;57.632;18.292;2023-05-17T00:35:18;10.80;99.90
37844;DHT22;63793;57.632;18.292;2023-05-17T00:37:45;10.70;99.90
37844;DHT22;63793;57.632;18.292;2023-05-17T00:40:14;10.70;99.90
37844;DHT22;63793;57.632;18.292;2023-05-17T00:42:43;10.60;99.90
37844;DHT22;63793;57.632;18.292;2023-05-17T00:45:10;10.60;99.90
37844;DHT22;63793;57.632;18.292;2023-05-17T00:47:37;10.60;99.90
37844;DHT22;63793;57.632;18.292;2023-05-17T00:50:05;10.60;99.90
37844;DHT22;63793;57.632;18.292;2023-05-17T00:52:32;10.50;99.90
37844;DHT22;63793;57.632;18.292;2023-05-17T00:55:00;10.50;99.90
37844;DHT22;63793;57.632;18.292;2023-05-17T00:57:27;10.50;99.90
37844;DHT22;63793;57.632;18.292;2023-05-17T00:59:55;10.50;99.90
37844;DHT22;63793;57.632;18.292;2023-05-17T01:02:22;10.50;99.90
37844;DHT22;63793;57.632;18.292;2023-05-17T01:04:49;10.40;99.90
37844;DHT22;63793;57.632;18.292;2023-05-17T01:07:16;10.40;99.90
37844;DHT22;63793;57.632;18.292;2023-05-17T01:09:45;10.40;99.90
37844;DHT22;63793;57.632;18.292;2023-05-17T01:12:42;10.40;99.90
37844;DHT22;63793;57.632;18.292;2023-05-17T01:15:26;10.30;99.90
37844;DHT22;63793;57.632;18.292;2023-05-17T01:18:18;10.30;99.90
37844;DHT22;63793;57.632;18.292;2023-05-17T01:20:48;10.30;99.90
37844;DHT22;63793;57.632;18.292;2023-05-17T01:28:54;10.20;99.90
37844;DHT22;63793;57.632;18.292;2023-05-17T01:31:22;10.10;99.90
37844;DHT22;63793;57.632;18.292;2023-05-17T01:33:50;10.10;99.90
37844;DHT22;63793;57.632;18.292;2023-05-17T01:36:17;10.10;99.90
37844;DHT22;63793;57.632;18.292;2023-05-17T01:38:44;10.00;99.90
37844;DHT22;63793;57.632;18.292;2023-05-17T01:41:22;10.00;99.90
37844;DHT22;63793;57.632;18.292;2023-05-17T01:47:01;9.90;99.90
37844;DHT22;63793;57.632;18.292;2023-05-17T01:49:37;9.90;99.90
37844;DHT22;63793;57.632;18.292;2023-05-17T01:52:24;9.80;99.90
37844;DHT22;63793;57.632;18.292;2023-05-17T01:55:04;9.70;99.90
37844;DHT22;63793;57.632;18.292;2023-05-17T01:57:34;9.70;99.90
37844;DHT22;63793;57.632;18.292;2023-05-17T02:00:06;9.60;99.90
37844;DHT22;63793;57.632;18.292;2023-05-17T02:02:44;9.60;99.90
37844;DHT22;63793;57.632;18.292;2023-05-17T02:05:12;9.50;99.90
37844;DHT22;63793;57.632;18.292;2023-05-17T02:07:39;9.50;99.90
37844;DHT22;63793;57.632;18.292;2023-05-17T02:10:06;9.50;99.90
37844;DHT22;63793;57.632;18.292;2023-05-17T02:12:35;9.50;99.90
37844;DHT22;63793;57.632;18.292;2023-05-17T02:15:02;9.40;99.90
37844;DHT22;63793;57.632;18.292;2023-05-17T02:17:29;9.40;99.90
37844;DHT22;63793;57.632;18.292;2023-05-17T02:19:56;9.30;99.90
37844;DHT22;63793;57.632;18.292;2023-05-17T02:22:23;9.30;99.90
37844;DHT22;63793;57.632;18.292;2023-05-17T02:24:50;9.20;99.90
37844;DHT22;63793;57.632;18.292;2023-05-17T02:27:17;9.20;99.90
37844;DHT22;63793;57.632;18.292;2023-05-17T02:29:44;9.20;99.90
37844;DHT22;63793;57.632;18.292;2023-05-17T02:32:11;9.10;99.90
37844;DHT22;63793;57.632;18.292;2023-05-17T02:34:38;9.10;99.90
37844;DHT22;63793;57.632;18.292;2023-05-17T02:37:04;9.10;99.90
37844;DHT22;63793;57.632;18.292;2023-05-17T02:39:32;9.00;99.90
37844;DHT22;63793;57.632;18.292;2023-05-17T02:41:59;9.00;99.90
37844;DHT22;63793;57.632;18.292;2023-05-17T02:44:26;8.90;99.90
37844;DHT22;63793;57.632;18.292;2023-05-17T02:46:53;8.90;99.90
37844;DHT22;63793;57.632;18.292;2023-05-17T02:49:20;8.90;99.90
37844;DHT22;63793;57.632;18.292;2023-05-17T02:51:47;8.90;99.90
37844;DHT22;63793;57.632;18.292;2023-05-17T02:54:13;8.80;99.90
37844;DHT22;63793;57.632;18.292;2023-05-17T02:56:40;8.80;99.90
37844;DHT22;63793;57.632;18.292;2023-05-17T02:59:07;8.80;99.90
37844;DHT22;63793;57.632;18.292;2023-05-17T03:01:36;8.80;99.90
37844;DHT22;63793;57.632;18.292;2023-05-17T03:04:03;8.80;99.90
37844;DHT22;63793;57.632;18.292;2023-05-17T03:06:30;8.80;99.90
37844;DHT22;63793;57.632;18.292;2023-05-17T03:08:57;8.80;99.90
37844;DHT22;63793;57.632;18.292;2023-05-17T03:11:24;8.80;99.90
37844;DHT22;63793;57.632;18.292;2023-05-17T03:13:53;8.80;99.90
37844;DHT22;63793;57.632;18.292;2023-05-17T03:16:24;8.80;99.90
37844;DHT22;63793;57.632;18.292;2023-05-17T03:18:52;8.80;99.90
37844;DHT22;63793;57.632;18.292;2023-05-17T03:21:19;8.80;99.90
37844;DHT22;63793;57.632;18.292;2023-05-17T03:23:47;8.80;99.90
37844;DHT22;63793;57.632;18.292;2023-05-17T03:26:14;8.80;99.90
37844;DHT22;63793;57.632;18.292;2023-05-17T03:28:47;8.90;99.90
37844;DHT22;63793;57.632;18.292;2023-05-17T03:31:15;8.90;99.90
37844;DHT22;63793;57.632;18.292;2023-05-17T03:33:43;8.80;99.90
37844;DHT22;63793;57.632;18.292;2023-05-17T03:36:12;8.90;99.90
37844;DHT22;63793;57.632;18.292;2023-05-17T03:38:39;8.90;99.90
37844;DHT22;63793;57.632;18.292;2023-05-17T03:41:06;8.90;99.90
37844;DHT22;63793;57.632;18.292;2023-05-17T03:43:33;9.00;99.90
37844;DHT22;63793;57.632;18.292;2023-05-17T03:46:00;9.00;99.90
37844;DHT22;63793;57.632;18.292;2023-05-17T03:48:28;9.00;99.90
37844;DHT22;63793;57.632;18.292;2023-05-17T03:50:55;9.00;99.90
37844;DHT22;63793;57.632;18.292;2023-05-17T03:53:22;9.00;99.90
37844;DHT22;63793;57.632;18.292;2023-05-17T03:55:49;9.00;99.90
37844;DHT22;63793;57.632;18.292;2023-05-17T03:58:17;9.00;99.90
37844;DHT22;63793;57.632;18.292;2023-05-17T04:00:44;9.00;99.90
37844;DHT22;63793;57.632;18.292;2023-05-17T04:03:14;9.00;99.90
37844;DHT22;63793;57.632;18.292;2023-05-17T04:05:44;9.00;99.90
37844;DHT22;63793;57.632;18.292;2023-05-17T04:08:12;9.00;99.90
37844;DHT22;63793;57.632;18.292;2023-05-17T04:10:39;9.10;99.90
37844;DHT22;63793;57.632;18.292;2023-05-17T04:13:08;9.00;99.90
37844;DHT22;63793;57.632;18.292;2023-05-17T04:15:36;9.10;99.90
37844;DHT22;63793;57.632;18.292;2023-05-17T04:18:04;9.10;99.90
37844;DHT22;63793;57.632;18.292;2023-05-17T04:20:31;9.20;99.90
37844;DHT22;63793;57.632;18.292;2023-05-17T04:22:58;9.20;99.90
37844;DHT22;63793;57.632;18.292;2023-05-17T04:25:28;9.20;99.90
37844;DHT22;63793;57.632;18.292;2023-05-17T04:27:56;9.30;99.90
37844;DHT22;63793;57.632;18.292;2023-05-17T04:30:23;9.30;99.90
37844;DHT22;63793;57.632;18.292;2023-05-17T04:32:50;9.30;99.90
37844;DHT22;63793;57.632;18.292;2023-05-17T04:35:18;9.40;99.90
37844;DHT22;63793;57.632;18.292;2023-05-17T04:37:48;9.50;99.90
37844;DHT22;63793;57.632;18.292;2023-05-17T04:40:19;9.50;99.90
37844;DHT22;63793;57.632;18.292;2023-05-17T04:42:47;9.60;99.90
37844;DHT22;63793;57.632;18.292;2023-05-17T04:45:15;9.60;99.90
37844;DHT22;63793;57.632;18.292;2023-05-17T04:47:43;9.60;99.90
37844;DHT22;63793;57.632;18.292;2023-05-17T04:50:10;9.50;99.90
37844;DHT22;63793;57.632;18.292;2023-05-17T04:52:38;9.60;99.90
37844;DHT22;63793;57.632;18.292;2023-05-17T04:55:06;9.60;99.90
37844;DHT22;63793;57.632;18.292;2023-05-17T04:57:34;9.60;99.90
37844;DHT22;63793;57.632;18.292;2023-05-17T05:00:04;9.60;99.90
37844;DHT22;63793;57.632;18.292;2023-05-17T05:02:38;9.60;99.90
37844;DHT22;63793;57.632;18.292;2023-05-17T05:05:07;9.60;99.90
37844;DHT22;63793;57.632;18.292;2023-05-17T05:07:36;9.60;99.90
37844;DHT22;63793;57.632;18.292;2023-05-17T05:10:06;9.70;99.90
37844;DHT22;63793;57.632;18.292;2023-05-17T05:12:33;9.70;99.90
37844;DHT22;63793;57.632;18.292;2023-05-17T05:15:00;9.70;99.90
37844;DHT22;63793;57.632;18.292;2023-05-17T05:17:29;9.80;99.90
37844;DHT22;63793;57.632;18.292;2023-05-17T05:19:56;9.80;99.90
37844;DHT22;63793;57.632;18.292;2023-05-17T05:22:25;9.80;99.90
37844;DHT22;63793;57.632;18.292;2023-05-17T05:24:54;9.80;99.90
37844;DHT22;63793;57.632;18.292;2023-05-17T05:27:21;9.90;99.90
37844;DHT22;63793;57.632;18.292;2023-05-17T05:29:49;9.80;99.90
37844;DHT22;63793;57.632;18.292;2023-05-17T05:32:16;9.80;99.90
37844;DHT22;63793;57.632;18.292;2023-05-17T05:34:45;9.90;99.90
37844;DHT22;63793;57.632;18.292;2023-05-17T05:37:12;9.90;99.90
37844;DHT22;63793;57.632;18.292;2023-05-17T05:39:41;10.10;99.90
37844;DHT22;63793;57.632;18.292;2023-05-17T05:42:08;10.20;99.90
37844;DHT22;63793;57.632;18.292;2023-05-17T05:44:35;10.20;99.90
37844;DHT22;63793;57.632;18.292;2023-05-17T05:47:02;10.20;99.90
37844;DHT22;63793;57.632;18.292;2023-05-17T05:49:29;10.30;99.90
37844;DHT22;63793;57.632;18.292;2023-05-17T05:51:56;10.30;99.90
37844;DHT22;63793;57.632;18.292;2023-05-17T05:54:26;10.40;99.90
37844;DHT22;63793;57.632;18.292;2023-05-17T05:56:53;10.60;99.90
37844;DHT22;63793;57.632;18.292;2023-05-17T05:59:21;10.70;99.90
37844;DHT22;63793;57.632;18.292;2023-05-17T06:01:47;10.80;99.90
37844;DHT22;63793;57.632;18.292;2023-05-17T06:04:14;10.80;99.90
37844;DHT22;63793;57.632;18.292;2023-05-17T06:06:41;10.80;99.90
37844;DHT22;63793;57.632;18.292;2023-05-17T06:09:08;10.80;99.90
37844;DHT22;63793;57.632;18.292;2023-05-17T06:11:38;10.90;99.90
37844;DHT22;63793;57.632;18.292;2023-05-17T06:14:06;11.00;99.90
37844;DHT22;63793;57.632;18.292;2023-05-17T06:16:33;11.00;99.90
37844;DHT22;63793;57.632;18.292;2023-05-17T06:19:01;11.00;99.90
37844;DHT22;63793;57.632;18.292;2023-05-17T06:21:29;11.10;99.90
37844;DHT22;63793;57.632;18.292;2023-05-17T06:23:56;11.10;99.90
37844;DHT22;63793;57.632;18.292;2023-05-17T06:26:23;11.10;99.90
37844;DHT22;63793;57.632;18.292;2023-05-17T06:28:50;11.10;99.90
37844;DHT22;63793;57.632;18.292;2023-05-17T06:31:17;11.10;99.90
37844;DHT22;63793;57.632;18.292;2023-05-17T06:33:46;11.00;99.90
37844;DHT22;63793;57.632;18.292;2023-05-17T06:36:13;11.00;99.90
37844;DHT22;63793;57.632;18.292;2023-05-17T06:38:40;11.10;99.90
37844;DHT22;63793;57.632;18.292;2023-05-17T06:41:07;11.10;99.90
37844;DHT22;63793;57.632;18.292;2023-05-17T06:43:34;11.10;99.90
37844;DHT22;63793;57.632;18.292;2023-05-17T06:46:03;11.10;99.90
37844;DHT22;63793;57.632;18.292;2023-05-17T06:48:30;11.20;99.90
37844;DHT22;63793;57.632;18.292;2023-05-17T06:50:57;11.20;99.90
37844;DHT22;63793;57.632;18.292;2023-05-17T06:53:24;11.30;99.90
37844;DHT22;63793;57.632;18.292;2023-05-17T06:55:52;11.40;99.90
37844;DHT22;63793;57.632;18.292;2023-05-17T06:58:19;11.40;99.90
37844;DHT22;63793;57.632;18.292;2023-05-17T07:00:46;11.40;99.90
37844;DHT22;63793;57.632;18.292;2023-05-17T07:03:13;11.40;99.90
37844;DHT22;63793;57.632;18.292;2023-05-17T07:05:40;11.50;99.90
37844;DHT22;63793;57.632;18.292;2023-05-17T07:08:07;11.50;99.90
37844;DHT22;63793;57.632;18.292;2023-05-17T07:10:34;11.50;99.90
37844;DHT22;63793;57.632;18.292;2023-05-17T07:13:01;11.50;99.90
37844;DHT22;63793;57.632;18.292;2023-05-17T07:15:28;11.50;99.90
37844;DHT22;63793;57.632;18.292;2023-05-17T07:17:56;11.60;99.90
37844;DHT22;63793;57.632;18.292;2023-05-17T07:20:23;11.70;99.90
37844;DHT22;63793;57.632;18.292;2023-05-17T07:22:49;11.80;99.90
37844;DHT22;63793;57.632;18.292;2023-05-17T07:25:16;11.80;99.90
37844;DHT22;63793;57.632;18.292;2023-05-17T07:27:44;12.00;99.90
37844;DHT22;63793;57.632;18.292;2023-05-17T07:30:11;12.00;99.90
37844;DHT22;63793;57.632;18.292;2023-05-17T07:32:38;12.00;99.90
37844;DHT22;63793;57.632;18.292;2023-05-17T07:35:05;12.00;99.90
37844;DHT22;63793;57.632;18.292;2023-05-17T07:37:33;12.00;99.90
37844;DHT22;63793;57.632;18.292;2023-05-17T07:40:00;11.90;99.90
37844;DHT22;63793;57.632;18.292;2023-05-17T07:42:27;12.00;99.90
37844;DHT22;63793;57.632;18.292;2023-05-17T07:44:54;12.00;99.90
37844;DHT22;63793;57.632;18.292;2023-05-17T07:47:21;12.00;99.90
37844;DHT22;63793;57.632;18.292;2023-05-17T07:49:48;11.90;99.90
37844;DHT22;63793;57.632;18.292;2023-05-17T07:52:15;11.80;99.90
37844;DHT22;63793;57.632;18.292;2023-05-17T07:54:42;11.80;99.90
37844;DHT22;63793;57.632;18.292;2023-05-17T07:57:09;12.00;99.90
37844;DHT22;63793;57.632;18.292;2023-05-17T07:59:36;12.00;99.90
37844;DHT22;63793;57.632;18.292;2023-05-17T08:02:03;12.10;99.90
37844;DHT22;63793;57.632;18.292;2023-05-17T08:04:30;12.20;99.90
37844;DHT22;63793;57.632;18.292;2023-05-17T08:06:56;12.30;99.90
37844;DHT22;63793;57.632;18.292;2023-05-17T08:09:24;12.30;99.90
37844;DHT22;63793;57.632;18.292;2023-05-17T08:11:50;12.10;99.90
37844;DHT22;63793;57.632;18.292;2023-05-17T08:14:19;12.00;99.90
37844;DHT22;63793;57.632;18.292;2023-05-17T08:16:47;12.00;99.90
37844;DHT22;63793;57.632;18.292;2023-05-17T08:19:14;12.00;99.90
37844;DHT22;63793;57.632;18.292;2023-05-17T08:21:42;12.00;99.90
37844;DHT22;63793;57.632;18.292;2023-05-17T08:24:09;12.00;99.90
37844;DHT22;63793;57.632;18.292;2023-05-17T08:26:37;12.10;99.90
37844;DHT22;63793;57.632;18.292;2023-05-17T08:29:04;12.10;99.90
37844;DHT22;63793;57.632;18.292;2023-05-17T08:31:31;12.20;99.90
37844;DHT22;63793;57.632;18.292;2023-05-17T08:33:58;12.10;99.90
37844;DHT22;63793;57.632;18.292;2023-05-17T08:36:28;12.20;99.90
37844;DHT22;63793;57.632;18.292;2023-05-17T08:38:55;12.30;99.90
37844;DHT22;63793;57.632;18.292;2023-05-17T08:41:23;12.40;99.90
37844;DHT22;63793;57.632;18.292;2023-05-17T08:43:50;12.40;99.90
37844;DHT22;63793;57.632;18.292;2023-05-17T08:46:19;12.50;99.90
37844;DHT22;63793;57.632;18.292;2023-05-17T08:48:51;12.40;99.90
37844;DHT22;63793;57.632;18.292;2023-05-17T08:51:19;12.50;99.90
37844;DHT22;63793;57.632;18.292;2023-05-17T08:53:47;12.50;99.90
37844;DHT22;63793;57.632;18.292;2023-05-17T08:56:17;12.50;99.90
37844;DHT22;63793;57.632;18.292;2023-05-17T08:58:47;12.50;99.90
37844;DHT22;63793;57.632;18.292;2023-05-17T09:01:23;12.50;99.90
37844;DHT22;63793;57.632;18.292;2023-05-17T09:03:53;12.40;99.90
37844;DHT22;63793;57.632;18.292;2023-05-17T09:06:21;12.40;99.90
37844;DHT22;63793;57.632;18.292;2023-05-17T09:08:49;12.60;99.90
37844;DHT22;63793;57.632;18.292;2023-05-17T09:11:25;12.50;99.90
37844;DHT22;63793;57.632;18.292;2023-05-17T09:13:56;12.50;99.90
37844;DHT22;63793;57.632;18.292;2023-05-17T09:16:24;12.40;99.90
37844;DHT22;63793;57.632;18.292;2023-05-17T09:18:56;12.40;99.90
37844;DHT22;63793;57.632;18.292;2023-05-17T09:21:25;12.50;99.90
37844;DHT22;63793;57.632;18.292;2023-05-17T09:23:53;12.50;99.90
37844;DHT22;63793;57.632;18.292;2023-05-17T09:26:41;12.50;99.90
37844;DHT22;63793;57.632;18.292;2023-05-17T09:29:10;12.60;99.90
37844;DHT22;63793;57.632;18.292;2023-05-17T09:31:38;12.80;99.90
37844;DHT22;63793;57.632;18.292;2023-05-17T09:34:05;12.90;99.90
37844;DHT22;63793;57.632;18.292;2023-05-17T09:36:40;12.70;99.90
37844;DHT22;63793;57.632;18.292;2023-05-17T09:39:09;12.80;99.90
37844;DHT22;63793;57.632;18.292;2023-05-17T09:41:45;12.80;99.90
37844;DHT22;63793;57.632;18.292;2023-05-17T09:44:14;12.70;99.90
37844;DHT22;63793;57.632;18.292;2023-05-17T09:46:44;12.80;99.90
37844;DHT22;63793;57.632;18.292;2023-05-17T09:49:12;12.90;99.90
37844;DHT22;63793;57.632;18.292;2023-05-17T09:51:41;12.90;99.90
37844;DHT22;63793;57.632;18.292;2023-05-17T09:54:09;13.00;99.90
37844;DHT22;63793;57.632;18.292;2023-05-17T09:56:36;13.00;99.90
37844;DHT22;63793;57.632;18.292;2023-05-17T09:59:13;13.10;99.90
37844;DHT22;63793;57.632;18.292;2023-05-17T10:01:42;13.10;99.90
37844;DHT22;63793;57.632;18.292;2023-05-17T10:04:12;13.00;99.90
37844;DHT22;63793;57.632;18.292;2023-05-17T10:06:40;13.00;99.90
37844;DHT22;63793;57.632;18.292;2023-05-17T10:09:15;13.00;99.90
37844;DHT22;63793;57.632;18.292;2023-05-17T10:11:45;13.00;99.90
37844;DHT22;63793;57.632;18.292;2023-05-17T10:14:17;13.00;99.90
37844;DHT22;63793;57.632;18.292;2023-05-17T10:16:44;13.00;99.90
37844;DHT22;63793;57.632;18.292;2023-05-17T10:19:13;13.20;99.90
37844;DHT22;63793;57.632;18.292;2023-05-17T10:21:40;13.30;99.90
37844;DHT22;63793;57.632;18.292;2023-05-17T10:24:09;13.40;99.90
37844;DHT22;63793;57.632;18.292;2023-05-17T10:26:37;13.40;99.30
37844;DHT22;63793;57.632;18.292;2023-05-17T10:29:05;13.40;99.30
37844;DHT22;63793;57.632;18.292;2023-05-17T10:31:33;13.40;98.60
37844;DHT22;63793;57.632;18.292;2023-05-17T10:34:04;13.40;98.90
37844;DHT22;63793;57.632;18.292;2023-05-17T10:36:32;13.60;98.90
37844;DHT22;63793;57.632;18.292;2023-05-17T10:39:00;13.60;98.20
37844;DHT22;63793;57.632;18.292;2023-05-17T10:41:32;13.70;97.60
37844;DHT22;63793;57.632;18.292;2023-05-17T10:44:02;13.60;97.90
37844;DHT22;63793;57.632;18.292;2023-05-17T10:46:30;13.50;97.70
37844;DHT22;63793;57.632;18.292;2023-05-17T10:48:57;13.60;97.90
37844;DHT22;63793;57.632;18.292;2023-05-17T10:51:33;13.60;97.50
37844;DHT22;63793;57.632;18.292;2023-05-17T10:56:31;13.50;97.90
37844;DHT22;63793;57.632;18.292;2023-05-17T10:59:24;13.50;98.60
37844;DHT22;63793;57.632;18.292;2023-05-17T11:01:59;13.70;97.90
37844;DHT22;63793;57.632;18.292;2023-05-17T11:04:36;13.80;96.90
37844;DHT22;63793;57.632;18.292;2023-05-17T11:09:44;13.70;96.60
37844;DHT22;63793;57.632;18.292;2023-05-17T11:12:13;13.70;96.20
37844;DHT22;63793;57.632;18.292;2023-05-17T11:14:53;13.80;96.30
37844;DHT22;63793;57.632;18.292;2023-05-17T11:17:23;13.80;95.80
37844;DHT22;63793;57.632;18.292;2023-05-17T11:22:24;14.10;95.40
37844;DHT22;63793;57.632;18.292;2023-05-17T11:24:55;14.20;95.60
37844;DHT22;63793;57.632;18.292;2023-05-17T11:27:22;14.30;94.40
37844;DHT22;63793;57.632;18.292;2023-05-17T11:29:53;14.30;95.20
37844;DHT22;63793;57.632;18.292;2023-05-17T11:32:27;14.30;95.40
37844;DHT22;63793;57.632;18.292;2023-05-17T11:34:56;14.40;95.00
37844;DHT22;63793;57.632;18.292;2023-05-17T11:37:26;14.70;94.90
37844;DHT22;63793;57.632;18.292;2023-05-17T11:40:06;14.90;94.30
37844;DHT22;63793;57.632;18.292;2023-05-17T11:42:34;14.90;93.50
37844;DHT22;63793;57.632;18.292;2023-05-17T11:45:03;14.60;93.90
37844;DHT22;63793;57.632;18.292;2023-05-17T11:47:31;14.50;93.10
37844;DHT22;63793;57.632;18.292;2023-05-17T11:50:02;14.70;93.90
37844;DHT22;63793;57.632;18.292;2023-05-17T11:52:30;14.80;93.40
37844;DHT22;63793;57.632;18.292;2023-05-17T11:54:58;14.60;92.90
37844;DHT22;63793;57.632;18.292;2023-05-17T11:57:29;14.50;93.10
37844;DHT22;63793;57.632;18.292;2023-05-17T12:00:03;14.40;93.20
37844;DHT22;63793;57.632;18.292;2023-05-17T12:02:40;14.30;94.00
37844;DHT22;63793;57.632;18.292;2023-05-17T12:05:07;14.20;93.70
37844;DHT22;63793;57.632;18.292;2023-05-17T12:07:35;14.30;94.90
37844;DHT22;63793;57.632;18.292;2023-05-17T12:10:03;14.00;95.00
37844;DHT22;63793;57.632;18.292;2023-05-17T12:12:31;13.80;96.30
37844;DHT22;63793;57.632;18.292;2023-05-17T12:14:58;13.60;97.40
37844;DHT22;63793;57.632;18.292;2023-05-17T12:17:32;13.60;98.30
37844;DHT22;63793;57.632;18.292;2023-05-17T12:20:08;13.40;99.10
37844;DHT22;63793;57.632;18.292;2023-05-17T12:22:55;13.20;99.40
37844;DHT22;63793;57.632;18.292;2023-05-17T12:25:23;12.90;99.90
37844;DHT22;63793;57.632;18.292;2023-05-17T12:28:14;12.70;99.90
37844;DHT22;63793;57.632;18.292;2023-05-17T12:30:42;12.50;99.90
37844;DHT22;63793;57.632;18.292;2023-05-17T12:33:09;12.40;99.90
37844;DHT22;63793;57.632;18.292;2023-05-17T12:35:36;12.50;99.90
37844;DHT22;63793;57.632;18.292;2023-05-17T12:38:03;13.00;99.90
37844;DHT22;63793;57.632;18.292;2023-05-17T12:40:30;13.20;99.90
37844;DHT22;63793;57.632;18.292;2023-05-17T12:43:03;13.40;99.90
37844;DHT22;63793;57.632;18.292;2023-05-17T12:45:31;13.30;99.90
37844;DHT22;63793;57.632;18.292;2023-05-17T12:47:59;13.30;99.90
37844;DHT22;63793;57.632;18.292;2023-05-17T12:50:29;13.20;99.90
37844;DHT22;63793;57.632;18.292;2023-05-17T12:52:57;12.90;99.90
37844;DHT22;63793;57.632;18.292;2023-05-17T12:55:24;12.40;99.90
37844;DHT22;63793;57.632;18.292;2023-05-17T12:57:52;11.90;99.90
37844;DHT22;63793;57.632;18.292;2023-05-17T13:00:20;11.50;99.90
37844;DHT22;63793;57.632;18.292;2023-05-17T13:02:47;11.00;99.90
37844;DHT22;63793;57.632;18.292;2023-05-17T13:05:18;10.70;99.90
37844;DHT22;63793;57.632;18.292;2023-05-17T13:07:47;10.60;99.90
37844;DHT22;63793;57.632;18.292;2023-05-17T13:10:25;10.60;99.90
37844;DHT22;63793;57.632;18.292;2023-05-17T13:12:57;10.90;99.90
37844;DHT22;63793;57.632;18.292;2023-05-17T13:15:31;10.80;99.90
37844;DHT22;63793;57.632;18.292;2023-05-17T13:17:59;10.90;99.90
37844;DHT22;63793;57.632;18.292;2023-05-17T13:20:26;10.80;99.90
37844;DHT22;63793;57.632;18.292;2023-05-17T13:22:53;10.70;99.90
37844;DHT22;63793;57.632;18.292;2023-05-17T13:25:20;10.40;99.90
37844;DHT22;63793;57.632;18.292;2023-05-17T13:27:47;10.20;99.90
37844;DHT22;63793;57.632;18.292;2023-05-17T13:30:15;10.20;99.90
37844;DHT22;63793;57.632;18.292;2023-05-17T13:32:43;10.10;99.90
37844;DHT22;63793;57.632;18.292;2023-05-17T13:35:10;10.10;99.90
37844;DHT22;63793;57.632;18.292;2023-05-17T13:37:37;10.30;99.90
37844;DHT22;63793;57.632;18.292;2023-05-17T13:40:04;10.40;99.90
37844;DHT22;63793;57.632;18.292;2023-05-17T13:42:32;10.40;99.90
37844;DHT22;63793;57.632;18.292;2023-05-17T13:44:59;10.10;99.90
37844;DHT22;63793;57.632;18.292;2023-05-17T13:47:27;9.90;99.90
37844;DHT22;63793;57.632;18.292;2023-05-17T13:49:58;9.80;99.90
37844;DHT22;63793;57.632;18.292;2023-05-17T13:52:26;9.70;99.90
37844;DHT22;63793;57.632;18.292;2023-05-17T13:54:53;9.70;99.90
37844;DHT22;63793;57.632;18.292;2023-05-17T13:57:20;9.80;99.90
37844;DHT22;63793;57.632;18.292;2023-05-17T13:59:47;9.70;99.90
37844;DHT22;63793;57.632;18.292;2023-05-17T14:02:14;9.60;99.90
37844;DHT22;63793;57.632;18.292;2023-05-17T14:04:41;9.40;99.90
37844;DHT22;63793;57.632;18.292;2023-05-17T14:07:08;9.40;99.90
37844;DHT22;63793;57.632;18.292;2023-05-17T14:09:34;9.30;99.90
37844;DHT22;63793;57.632;18.292;2023-05-17T14:12:03;9.30;99.90
37844;DHT22;63793;57.632;18.292;2023-05-17T14:14:30;9.30;99.90
37844;DHT22;63793;57.632;18.292;2023-05-17T14:16:57;9.20;99.90
37844;DHT22;63793;57.632;18.292;2023-05-17T14:19:24;9.10;99.90
37844;DHT22;63793;57.632;18.292;2023-05-17T14:21:51;9.00;99.90
37844;DHT22;63793;57.632;18.292;2023-05-17T14:24:18;9.00;99.90
37844;DHT22;63793;57.632;18.292;2023-05-17T14:26:45;9.00;99.90
37844;DHT22;63793;57.632;18.292;2023-05-17T14:29:12;9.00;99.90
37844;DHT22;63793;57.632;18.292;2023-05-17T14:31:39;8.80;99.90
37844;DHT22;63793;57.632;18.292;2023-05-17T14:34:07;8.70;99.90
37844;DHT22;63793;57.632;18.292;2023-05-17T14:36:34;8.80;99.90
37844;DHT22;63793;57.632;18.292;2023-05-17T14:39:02;8.90;99.90
37844;DHT22;63793;57.632;18.292;2023-05-17T14:41:29;9.00;99.90
37844;DHT22;63793;57.632;18.292;2023-05-17T14:43:56;9.20;99.90
37844;DHT22;63793;57.632;18.292;2023-05-17T14:46:23;9.10;99.90
37844;DHT22;63793;57.632;18.292;2023-05-17T14:48:50;9.10;99.90
37844;DHT22;63793;57.632;18.292;2023-05-17T14:51:18;8.90;99.90
37844;DHT22;63793;57.632;18.292;2023-05-17T14:53:45;8.90;99.90
37844;DHT22;63793;57.632;18.292;2023-05-17T14:56:12;8.90;99.90
37844;DHT22;63793;57.632;18.292;2023-05-17T14:58:40;8.90;99.90
37844;DHT22;63793;57.632;18.292;2023-05-17T15:01:08;8.90;99.90
37844;DHT22;63793;57.632;18.292;2023-05-17T15:03:34;8.90;99.90
37844;DHT22;63793;57.632;18.292;2023-05-17T15:06:02;9.00;99.90
37844;DHT22;63793;57.632;18.292;2023-05-17T15:08:34;9.20;99.90
37844;DHT22;63793;57.632;18.292;2023-05-17T15:11:01;9.20;99.90
37844;DHT22;63793;57.632;18.292;2023-05-17T15:13:28;9.20;99.90
37844;DHT22;63793;57.632;18.292;2023-05-17T15:15:55;9.20;99.90
37844;DHT22;63793;57.632;18.292;2023-05-17T15:18:22;9.40;99.90
37844;DHT22;63793;57.632;18.292;2023-05-17T15:20:49;9.40;99.90
37844;DHT22;63793;57.632;18.292;2023-05-17T15:23:16;9.40;99.90
37844;DHT22;63793;57.632;18.292;2023-05-17T15:25:43;9.40;99.90
37844;DHT22;63793;57.632;18.292;2023-05-17T15:28:10;9.30;99.90
37844;DHT22;63793;57.632;18.292;2023-05-17T15:30:37;9.40;99.90
37844;DHT22;63793;57.632;18.292;2023-05-17T15:33:07;9.30;99.90
37844;DHT22;63793;57.632;18.292;2023-05-17T15:35:35;9.10;99.90
37844;DHT22;63793;57.632;18.292;2023-05-17T15:38:03;9.00;99.90
37844;DHT22;63793;57.632;18.292;2023-05-17T15:40:32;8.90;99.90
37844;DHT22;63793;57.632;18.292;2023-05-17T15:42:59;8.70;99.90
37844;DHT22;63793;57.632;18.292;2023-05-17T15:45:26;8.60;99.90
37844;DHT22;63793;57.632;18.292;2023-05-17T15:47:54;8.50;99.90